sensor_id;sensor_type;location;lat;lon;timestamp;pressure;altitude;pressure_sealevel;temperature;humidity
62544;BME280;48597;49.030;1.822;2023-01-10T00:01:21;101052.88;;;20.24;45.74
62544;BME280;48597;49.030;1.822;2023-01-10T00:03:47;101046.34;;;20.23;45.59
62544;BME280;48597;49.030;1.822;2023-01-10T00:06:12;101063.97;;;20.22;45.76
62544;BME280;48597;49.030;1.822;2023-01-10T00:08:37;101061.09;;;20.22;45.58
62544;BME280;48597;49.030;1.822;2023-01-10T00:11:03;101061.91;;;20.22;45.55
62544;BME280;48597;49.030;1.822;2023-01-10T00:13:52;101073.81;;;20.21;45.74
62544;BME280;48597;49.030;1.822;2023-01-10T00:16:17;101070.94;;;20.21;45.61
62544;BME280;48597;49.030;1.822;2023-01-10T00:18:43;101078.28;;;20.22;45.55
62544;BME280;48597;49.030;1.822;2023-01-10T00:21:08;101084.81;;;20.22;45.55
62544;BME280;48597;49.030;1.822;2023-01-10T00:23:33;101071.75;;;20.21;45.42
62544;BME280;48597;49.030;1.822;2023-01-10T00:25:59;101081.94;;;20.22;45.54
62544;BME280;48597;49.030;1.822;2023-01-10T00:28:25;101089.72;;;20.22;45.54
62544;BME280;48597;49.030;1.822;2023-01-10T00:30:52;101095.81;;;20.24;45.56
62544;BME280;48597;49.030;1.822;2023-01-10T00:33:32;101091.34;;;20.23;45.42
62544;BME280;48597;49.030;1.822;2023-01-10T00:35:58;101093.38;;;20.22;45.72
62544;BME280;48597;49.030;1.822;2023-01-10T00:38:24;101092.22;;;20.20;45.44
62544;BME280;48597;49.030;1.822;2023-01-10T00:40:50;101089.00;;;20.18;45.51
62544;BME280;48597;49.030;1.822;2023-01-10T00:43:15;101090.69;;;20.15;45.55
62544;BME280;48597;49.030;1.822;2023-01-10T00:45:59;101098.47;;;20.15;45.55
62544;BME280;48597;49.030;1.822;2023-01-10T00:48:26;101097.22;;;20.16;45.58
62544;BME280;48597;49.030;1.822;2023-01-10T00:50:52;101095.16;;;20.16;45.54
62544;BME280;48597;49.030;1.822;2023-01-10T00:53:17;101094.81;;;20.14;45.60
62544;BME280;48597;49.030;1.822;2023-01-10T00:55:43;101106.25;;;20.14;45.61
62544;BME280;48597;49.030;1.822;2023-01-10T00:58:08;101109.91;;;20.15;45.45
62544;BME280;48597;49.030;1.822;2023-01-10T01:00:37;101108.66;;;20.16;45.47
62544;BME280;48597;49.030;1.822;2023-01-10T01:03:03;101117.25;;;20.16;45.58
62544;BME280;48597;49.030;1.822;2023-01-10T01:05:29;101121.72;;;20.17;45.46
62544;BME280;48597;49.030;1.822;2023-01-10T01:07:54;101120.56;;;20.14;45.43
62544;BME280;48597;49.030;1.822;2023-01-10T01:10:19;101128.25;;;20.17;45.50
62544;BME280;48597;49.030;1.822;2023-01-10T01:12:51;101123.41;;;20.14;45.63
62544;BME280;48597;49.030;1.822;2023-01-10T01:15:17;101111.97;;;20.14;45.60
62544;BME280;48597;49.030;1.822;2023-01-10T01:17:42;101119.31;;;20.15;45.71
62544;BME280;48597;49.030;1.822;2023-01-10T01:20:08;101124.22;;;20.15;45.39
62544;BME280;48597;49.030;1.822;2023-01-10T01:22:33;101113.59;;;20.15;45.47
62544;BME280;48597;49.030;1.822;2023-01-10T01:24:59;101126.66;;;20.16;45.43
62544;BME280;48597;49.030;1.822;2023-01-10T01:27:24;101128.25;;;20.17;45.37
62544;BME280;48597;49.030;1.822;2023-01-10T01:29:50;101130.75;;;20.15;45.38
62544;BME280;48597;49.030;1.822;2023-01-10T01:32:15;101138.09;;;20.16;45.37
62544;BME280;48597;49.030;1.822;2023-01-10T01:34:40;101148.75;;;20.16;45.34
62544;BME280;48597;49.030;1.822;2023-01-10T01:37:06;101142.22;;;20.15;45.56
62544;BME280;48597;49.030;1.822;2023-01-10T01:39:31;101143.00;;;20.16;45.42
62544;BME280;48597;49.030;1.822;2023-01-10T01:41:57;101145.88;;;20.16;45.45
62544;BME280;48597;49.030;1.822;2023-01-10T01:44:23;101134.44;;;20.16;45.45
62544;BME280;48597;49.030;1.822;2023-01-10T01:47:00;101149.53;;;20.16;45.44
62544;BME280;48597;49.030;1.822;2023-01-10T01:49:29;101159.75;;;20.17;45.35
62544;BME280;48597;49.030;1.822;2023-01-10T01:52:03;101156.53;;;20.15;45.53
62544;BME280;48597;49.030;1.822;2023-01-10T01:54:30;101170.38;;;20.17;45.38
62544;BME280;48597;49.030;1.822;2023-01-10T01:59:29;101174.84;;;20.18;45.44
62544;BME280;48597;49.030;1.822;2023-01-10T02:02:01;101191.16;;;20.21;45.30
62544;BME280;48597;49.030;1.822;2023-01-10T02:04:38;101190.41;;;20.17;45.34
62544;BME280;48597;49.030;1.822;2023-01-10T02:07:05;101185.88;;;20.19;45.32
62544;BME280;48597;49.030;1.822;2023-01-10T02:09:40;101198.94;;;20.20;45.12
62544;BME280;48597;49.030;1.822;2023-01-10T02:12:08;101196.06;;;20.20;45.44
62544;BME280;48597;49.030;1.822;2023-01-10T02:14:35;101196.88;;;20.21;45.23
62544;BME280;48597;49.030;1.822;2023-01-10T02:17:01;101191.16;;;20.21;45.26
62544;BME280;48597;49.030;1.822;2023-01-10T02:25:20;101198.84;;;20.24;45.27
62544;BME280;48597;49.030;1.822;2023-01-10T02:28:38;101194.38;;;20.23;45.02
62544;BME280;48597;49.030;1.822;2023-01-10T02:36:48;101191.88;;;20.25;45.13
62544;BME280;48597;49.030;1.822;2023-01-10T02:41:52;101196.00;;;20.24;45.05
62544;BME280;48597;49.030;1.822;2023-01-10T02:44:28;101205.72;;;20.26;45.13
62544;BME280;48597;49.030;1.822;2023-01-10T02:46:55;101208.13;;;20.28;44.93
62544;BME280;48597;49.030;1.822;2023-01-10T02:49:21;101212.25;;;20.27;45.14
62544;BME280;48597;49.030;1.822;2023-01-10T02:51:48;101211.38;;;20.30;44.86
62544;BME280;48597;49.030;1.822;2023-01-10T02:54:15;101200.34;;;20.28;45.04
62544;BME280;48597;49.030;1.822;2023-01-10T03:00:04;101195.00;;;20.30;44.75
62544;BME280;48597;49.030;1.822;2023-01-10T03:02:47;101202.34;;;20.31;44.99
62544;BME280;48597;49.030;1.822;2023-01-10T03:05:44;101196.59;;;20.31;44.82
62544;BME280;48597;49.030;1.822;2023-01-10T03:08:25;101189.28;;;20.30;44.97
62544;BME280;48597;49.030;1.822;2023-01-10T03:11:01;101192.94;;;20.31;44.69
62544;BME280;48597;49.030;1.822;2023-01-10T03:16:07;101201.53;;;20.31;44.97
62544;BME280;48597;49.030;1.822;2023-01-10T03:18:47;101207.69;;;20.29;45.03
62544;BME280;48597;49.030;1.822;2023-01-10T03:21:15;101197.13;;;20.26;44.84
62544;BME280;48597;49.030;1.822;2023-01-10T03:23:44;101197.50;;;20.28;45.09
62544;BME280;48597;49.030;1.822;2023-01-10T03:26:10;101199.91;;;20.30;44.75
62544;BME280;48597;49.030;1.822;2023-01-10T03:28:47;101189.28;;;20.30;44.82
62544;BME280;48597;49.030;1.822;2023-01-10T03:31:18;101200.34;;;20.28;44.91
62544;BME280;48597;49.030;1.822;2023-01-10T03:33:47;101210.56;;;20.29;44.82
62544;BME280;48597;49.030;1.822;2023-01-10T03:38:59;101214.31;;;20.26;44.83
62544;BME280;48597;49.030;1.822;2023-01-10T03:41:39;101213.06;;;20.27;44.78
62544;BME280;48597;49.030;1.822;2023-01-10T03:44:44;101220.84;;;20.27;45.05
62544;BME280;48597;49.030;1.822;2023-01-10T03:49:46;101216.38;;;20.26;44.88
62544;BME280;48597;49.030;1.822;2023-01-10T03:52:15;101218.78;;;20.27;45.02
62544;BME280;48597;49.030;1.822;2023-01-10T03:54:43;101215.22;;;20.23;44.96
62544;BME280;48597;49.030;1.822;2023-01-10T03:57:14;101220.03;;;20.26;44.84
62544;BME280;48597;49.030;1.822;2023-01-10T03:59:41;101221.28;;;20.25;45.06
62544;BME280;48597;49.030;1.822;2023-01-10T04:02:06;101218.09;;;20.23;44.89
62544;BME280;48597;49.030;1.822;2023-01-10T04:04:31;101225.41;;;20.24;44.89
62544;BME280;48597;49.030;1.822;2023-01-10T04:06:57;101224.63;;;20.24;44.86
62544;BME280;48597;49.030;1.822;2023-01-10T04:09:22;101227.00;;;20.25;44.97
62544;BME280;48597;49.030;1.822;2023-01-10T04:11:47;101218.09;;;20.23;44.95
62544;BME280;48597;49.030;1.822;2023-01-10T04:14:13;101220.50;;;20.25;44.90
62544;BME280;48597;49.030;1.822;2023-01-10T04:16:38;101211.09;;;20.24;44.85
62544;BME280;48597;49.030;1.822;2023-01-10T04:19:03;101217.66;;;20.25;44.94
62544;BME280;48597;49.030;1.822;2023-01-10T04:21:29;101220.50;;;20.25;44.81
62544;BME280;48597;49.030;1.822;2023-01-10T04:23:54;101217.66;;;20.25;44.89
62544;BME280;48597;49.030;1.822;2023-01-10T04:26:20;101213.97;;;20.24;44.82
62544;BME280;48597;49.030;1.822;2023-01-10T04:28:45;101211.09;;;20.24;44.87
62544;BME280;48597;49.030;1.822;2023-01-10T04:31:10;101218.09;;;20.23;44.81
62544;BME280;48597;49.030;1.822;2023-01-10T04:33:36;101216.84;;;20.24;44.98
62544;BME280;48597;49.030;1.822;2023-01-10T04:36:03;101225.41;;;20.24;44.93
62544;BME280;48597;49.030;1.822;2023-01-10T04:38:28;101223.38;;;20.25;44.92
62544;BME280;48597;49.030;1.822;2023-01-10T04:40:55;101229.44;;;20.27;44.93
62544;BME280;48597;49.030;1.822;2023-01-10T04:43:21;101221.28;;;20.25;44.89
62544;BME280;48597;49.030;1.822;2023-01-10T04:45:47;101229.53;;;20.23;44.85
62544;BME280;48597;49.030;1.822;2023-01-10T04:48:12;101222.56;;;20.24;44.99
62544;BME280;48597;49.030;1.822;2023-01-10T04:50:38;101231.16;;;20.24;45.03
62544;BME280;48597;49.030;1.822;2023-01-10T04:53:03;101235.25;;;20.23;44.94
62544;BME280;48597;49.030;1.822;2023-01-10T04:55:28;101234.44;;;20.23;44.97
62544;BME280;48597;49.030;1.822;2023-01-10T04:57:54;101224.63;;;20.24;44.74
62544;BME280;48597;49.030;1.822;2023-01-10T05:00:19;101226.31;;;20.21;44.79
62544;BME280;48597;49.030;1.822;2023-01-10T05:02:45;101226.31;;;20.21;44.98
62544;BME280;48597;49.030;1.822;2023-01-10T05:05:11;101217.28;;;20.23;44.93
62544;BME280;48597;49.030;1.822;2023-01-10T05:07:37;101214.78;;;20.25;44.81
62544;BME280;48597;49.030;1.822;2023-01-10T05:10:04;101214.41;;;20.23;44.81
62544;BME280;48597;49.030;1.822;2023-01-10T05:12:30;101218.88;;;20.24;44.89
62544;BME280;48597;49.030;1.822;2023-01-10T05:14:55;101214.41;;;20.23;44.93
62544;BME280;48597;49.030;1.822;2023-01-10T05:17:21;101208.25;;;20.24;44.90
62544;BME280;48597;49.030;1.822;2023-01-10T05:19:46;101208.25;;;20.24;44.95
62544;BME280;48597;49.030;1.822;2023-01-10T05:22:12;101201.34;;;20.22;44.80
62544;BME280;48597;49.030;1.822;2023-01-10T05:24:37;101197.25;;;20.23;44.78
62544;BME280;48597;49.030;1.822;2023-01-10T05:27:02;101193.56;;;20.22;44.90
62544;BME280;48597;49.030;1.822;2023-01-10T05:29:28;101186.59;;;20.23;44.87
62544;BME280;48597;49.030;1.822;2023-01-10T05:31:53;101188.66;;;20.23;44.96
62544;BME280;48597;49.030;1.822;2023-01-10T05:34:19;101194.38;;;20.23;44.77
62544;BME280;48597;49.030;1.822;2023-01-10T05:36:45;101198.03;;;20.23;44.71
62544;BME280;48597;49.030;1.822;2023-01-10T05:39:10;101191.88;;;20.25;44.85
62544;BME280;48597;49.030;1.822;2023-01-10T05:41:36;101190.59;;;20.26;44.68
62544;BME280;48597;49.030;1.822;2023-01-10T05:44:01;101204.56;;;20.24;44.87
62544;BME280;48597;49.030;1.822;2023-01-10T05:46:27;101203.34;;;20.25;44.61
62544;BME280;48597;49.030;1.822;2023-01-10T05:48:52;101204.56;;;20.24;44.81
62544;BME280;48597;49.030;1.822;2023-01-10T05:51:17;101200.00;;;20.26;44.85
62544;BME280;48597;49.030;1.822;2023-01-10T05:53:43;101190.16;;;20.27;44.78
62544;BME280;48597;49.030;1.822;2023-01-10T05:56:08;101193.03;;;20.27;44.75
62544;BME280;48597;49.030;1.822;2023-01-10T05:58:34;101187.75;;;20.26;44.64
62544;BME280;48597;49.030;1.822;2023-01-10T06:01:00;101186.94;;;20.25;44.69
62544;BME280;48597;49.030;1.822;2023-01-10T06:03:25;101189.78;;;20.25;44.78
62544;BME280;48597;49.030;1.822;2023-01-10T06:05:52;101191.41;;;20.26;44.71
62544;BME280;48597;49.030;1.822;2023-01-10T06:08:17;101188.53;;;20.26;44.89
62544;BME280;48597;49.030;1.822;2023-01-10T06:10:43;101188.53;;;20.26;44.57
62544;BME280;48597;49.030;1.822;2023-01-10T06:13:08;101197.13;;;20.26;44.92
62544;BME280;48597;49.030;1.822;2023-01-10T06:15:36;101194.28;;;20.26;44.80
62544;BME280;48597;49.030;1.822;2023-01-10T06:18:01;101189.78;;;20.25;44.87
62544;BME280;48597;49.030;1.822;2023-01-10T06:20:26;101196.00;;;20.24;44.80
62544;BME280;48597;49.030;1.822;2023-01-10T06:22:52;101197.59;;;20.25;44.63
62544;BME280;48597;49.030;1.822;2023-01-10T06:25:18;101192.66;;;20.25;44.64
62544;BME280;48597;49.030;1.822;2023-01-10T06:27:43;101198.38;;;20.25;44.84
62544;BME280;48597;49.030;1.822;2023-01-10T06:30:11;101202.53;;;20.24;44.65
62544;BME280;48597;49.030;1.822;2023-01-10T06:32:37;101201.72;;;20.24;44.76
62544;BME280;48597;49.030;1.822;2023-01-10T06:35:03;101198.13;;;20.20;44.89
62544;BME280;48597;49.030;1.822;2023-01-10T06:37:28;101198.94;;;20.20;44.58
62544;BME280;48597;49.030;1.822;2023-01-10T06:39:54;101194.44;;;20.19;44.67
62544;BME280;48597;49.030;1.822;2023-01-10T06:42:19;101191.59;;;20.19;44.75
62544;BME280;48597;49.030;1.822;2023-01-10T06:44:45;101193.66;;;20.19;44.71
62544;BME280;48597;49.030;1.822;2023-01-10T06:47:10;101198.19;;;20.16;44.86
62544;BME280;48597;49.030;1.822;2023-01-10T06:49:35;101197.41;;;20.16;44.76
62544;BME280;48597;49.030;1.822;2023-01-10T06:52:01;101200.25;;;20.16;44.88
62544;BME280;48597;49.030;1.822;2023-01-10T06:54:26;101197.84;;;20.14;44.86
62544;BME280;48597;49.030;1.822;2023-01-10T06:56:52;101197.75;;;20.18;45.02
62544;BME280;48597;49.030;1.822;2023-01-10T06:59:17;101196.88;;;20.21;44.50
62544;BME280;48597;49.030;1.822;2023-01-10T07:01:42;101199.75;;;20.21;44.55
62544;BME280;48597;49.030;1.822;2023-01-10T07:04:08;101193.56;;;20.22;44.66
62544;BME280;48597;49.030;1.822;2023-01-10T07:06:37;101200.00;;;20.26;44.62
62544;BME280;48597;49.030;1.822;2023-01-10T07:09:03;101199.56;;;20.28;44.49
62544;BME280;48597;49.030;1.822;2023-01-10T07:11:30;101196.25;;;20.29;44.49
62544;BME280;48597;49.030;1.822;2023-01-10T07:13:56;101200.72;;;20.30;44.64
62544;BME280;48597;49.030;1.822;2023-01-10T07:16:21;101192.50;;;20.32;44.33
62544;BME280;48597;49.030;1.822;2023-01-10T07:18:47;101191.25;;;20.33;44.35
62544;BME280;48597;49.030;1.822;2023-01-10T07:21:12;101193.25;;;20.37;44.30
62544;BME280;48597;49.030;1.822;2023-01-10T07:23:39;101194.50;;;20.36;44.02
62544;BME280;48597;49.030;1.822;2023-01-10T07:26:07;101186.16;;;20.41;44.27
62544;BME280;48597;49.030;1.822;2023-01-10T07:28:33;101179.19;;;20.42;44.06
62544;BME280;48597;49.030;1.822;2023-01-10T07:31:03;101192.19;;;20.47;43.93
62544;BME280;48597;49.030;1.822;2023-01-10T07:33:30;101191.44;;;20.43;44.29
62544;BME280;48597;49.030;1.822;2023-01-10T07:35:56;101189.75;;;20.45;44.01
62544;BME280;48597;49.030;1.822;2023-01-10T07:38:22;101187.69;;;20.46;44.07
62544;BME280;48597;49.030;1.822;2023-01-10T07:40:47;101197.09;;;20.46;44.03
62544;BME280;48597;49.030;1.822;2023-01-10T07:43:13;101186.44;;;20.47;44.16
62544;BME280;48597;49.030;1.822;2023-01-10T07:45:38;101199.16;;;20.46;43.82
62544;BME280;48597;49.030;1.822;2023-01-10T07:48:04;101198.34;;;20.45;44.17
62544;BME280;48597;49.030;1.822;2023-01-10T07:50:33;101194.69;;;20.45;44.20
62544;BME280;48597;49.030;1.822;2023-01-10T07:53:01;101181.16;;;20.45;44.01
62544;BME280;48597;49.030;1.822;2023-01-10T07:55:27;101179.56;;;20.44;43.89
62544;BME280;48597;49.030;1.822;2023-01-10T07:57:53;101188.16;;;20.44;44.12
62544;BME280;48597;49.030;1.822;2023-01-10T08:00:19;101178.75;;;20.44;44.12
62544;BME280;48597;49.030;1.822;2023-01-10T08:02:45;101193.00;;;20.47;44.36
62544;BME280;48597;49.030;1.822;2023-01-10T08:05:10;101192.19;;;20.47;43.83
62544;BME280;48597;49.030;1.822;2023-01-10T08:07:36;101193.00;;;20.47;44.00
62544;BME280;48597;49.030;1.822;2023-01-10T08:10:03;101193.78;;;20.48;44.03
62544;BME280;48597;49.030;1.822;2023-01-10T08:12:29;101188.88;;;20.48;43.86
62544;BME280;48597;49.030;1.822;2023-01-10T08:14:54;101192.53;;;20.49;43.82
62544;BME280;48597;49.030;1.822;2023-01-10T08:17:19;101182.78;;;20.46;44.00
62544;BME280;48597;49.030;1.822;2023-01-10T08:19:45;101180.72;;;20.47;43.88
62544;BME280;48597;49.030;1.822;2023-01-10T08:22:11;101172.13;;;20.47;44.14
62544;BME280;48597;49.030;1.822;2023-01-10T08:24:36;101169.28;;;20.47;44.08
62544;BME280;48597;49.030;1.822;2023-01-10T08:27:01;101181.16;;;20.45;43.92
62544;BME280;48597;49.030;1.822;2023-01-10T08:29:28;101177.50;;;20.45;43.86
62544;BME280;48597;49.030;1.822;2023-01-10T08:31:53;101177.59;;;20.41;44.21
62544;BME280;48597;49.030;1.822;2023-01-10T08:34:19;101184.13;;;20.42;43.95
62544;BME280;48597;49.030;1.822;2023-01-10T08:36:44;101169.78;;;20.42;44.10
62544;BME280;48597;49.030;1.822;2023-01-10T08:39:11;101173.91;;;20.41;44.13
62544;BME280;48597;49.030;1.822;2023-01-10T08:41:36;101163.25;;;20.41;43.87
62544;BME280;48597;49.030;1.822;2023-01-10T08:44:04;101160.84;;;20.40;44.03
62544;BME280;48597;49.030;1.822;2023-01-10T08:46:29;101159.59;;;20.41;44.07
62544;BME280;48597;49.030;1.822;2023-01-10T08:48:55;101157.19;;;20.39;44.10
62544;BME280;48597;49.030;1.822;2023-01-10T08:51:20;101159.59;;;20.41;43.80
62544;BME280;48597;49.030;1.822;2023-01-10T08:53:45;101159.22;;;20.39;44.10
62544;BME280;48597;49.030;1.822;2023-01-10T08:56:11;101163.72;;;20.40;44.00
62544;BME280;48597;49.030;1.822;2023-01-10T08:58:36;101168.19;;;20.41;44.09
62544;BME280;48597;49.030;1.822;2023-01-10T09:01:06;101170.69;;;20.39;44.12
62544;BME280;48597;49.030;1.822;2023-01-10T09:03:33;101174.72;;;20.41;43.96
62544;BME280;48597;49.030;1.822;2023-01-10T09:05:59;101172.66;;;20.42;44.05
62544;BME280;48597;49.030;1.822;2023-01-10T09:08:25;101170.59;;;20.42;43.98
62544;BME280;48597;49.030;1.822;2023-01-10T09:10:50;101164.78;;;20.46;44.39
62544;BME280;48597;49.030;1.822;2023-01-10T09:13:15;101163.78;;;20.52;44.43
62544;BME280;48597;49.030;1.822;2023-01-10T09:15:41;101164.16;;;20.54;44.55
62544;BME280;48597;49.030;1.822;2023-01-10T09:18:09;101171.50;;;20.55;44.53
62544;BME280;48597;49.030;1.822;2023-01-10T09:20:38;101158.44;;;20.54;44.56
62544;BME280;48597;49.030;1.822;2023-01-10T09:23:09;101164.06;;;20.58;44.55
62544;BME280;48597;49.030;1.822;2023-01-10T09:25:35;101156.38;;;20.55;44.64
62544;BME280;48597;49.030;1.822;2023-01-10T09:28:02;101148.13;;;20.57;44.48
62544;BME280;48597;49.030;1.822;2023-01-10T09:30:29;101144.03;;;20.58;44.27
62544;BME280;48597;49.030;1.822;2023-01-10T09:32:56;101141.97;;;20.58;44.60
62544;BME280;48597;49.030;1.822;2023-01-10T09:35:22;101149.31;;;20.59;44.51
62544;BME280;48597;49.030;1.822;2023-01-10T09:37:52;101145.19;;;20.60;44.57
62544;BME280;48597;49.030;1.822;2023-01-10T09:45:54;101150.84;;;20.64;44.61
62544;BME280;48597;49.030;1.822;2023-01-10T09:53:46;101150.03;;;20.63;44.76
62544;BME280;48597;49.030;1.822;2023-01-10T09:56:13;101141.53;;;20.60;44.71
62544;BME280;48597;49.030;1.822;2023-01-10T09:58:41;101139.47;;;20.60;44.55
62544;BME280;48597;49.030;1.822;2023-01-10T10:01:11;101138.66;;;20.60;44.59
62544;BME280;48597;49.030;1.822;2023-01-10T10:06:11;101134.53;;;20.61;44.51
62544;BME280;48597;49.030;1.822;2023-01-10T10:08:39;101127.56;;;20.62;44.73
62544;BME280;48597;49.030;1.822;2023-01-10T10:22:17;101085.03;;;20.60;44.67
62544;BME280;48597;49.030;1.822;2023-01-10T10:33:06;101079.31;;;20.60;44.54
62544;BME280;48597;49.030;1.822;2023-01-10T10:35:40;101071.53;;;20.61;44.57
62544;BME280;48597;49.030;1.822;2023-01-10T10:38:23;101068.22;;;20.62;44.71
62544;BME280;48597;49.030;1.822;2023-01-10T10:40:51;101057.66;;;20.59;44.40
62544;BME280;48597;49.030;1.822;2023-01-10T10:43:21;101056.03;;;20.58;44.54
62544;BME280;48597;49.030;1.822;2023-01-10T10:45:56;101059.34;;;20.57;44.64
62544;BME280;48597;49.030;1.822;2023-01-10T10:48:31;101051.94;;;20.59;44.51
62544;BME280;48597;49.030;1.822;2023-01-10T10:53:47;101049.88;;;20.60;44.60
62544;BME280;48597;49.030;1.822;2023-01-10T10:56:15;101046.66;;;20.58;44.56
62544;BME280;48597;49.030;1.822;2023-01-10T10:58:43;101035.56;;;20.60;44.66
62544;BME280;48597;49.030;1.822;2023-01-10T11:01:15;101029.00;;;20.59;44.59
62544;BME280;48597;49.030;1.822;2023-01-10T11:03:47;101023.19;;;20.63;44.61
62544;BME280;48597;49.030;1.822;2023-01-10T11:06:15;101016.31;;;20.60;44.28
62544;BME280;48597;49.030;1.822;2023-01-10T11:08:43;101015.16;;;20.58;44.53
62544;BME280;48597;49.030;1.822;2023-01-10T11:11:33;101022.47;;;20.59;44.58
62544;BME280;48597;49.030;1.822;2023-01-10T11:14:02;101014.69;;;20.59;44.28
62544;BME280;48597;49.030;1.822;2023-01-10T11:16:40;101004.06;;;20.60;44.36
62544;BME280;48597;49.030;1.822;2023-01-10T11:19:24;101004.50;;;20.58;44.38
62544;BME280;48597;49.030;1.822;2023-01-10T11:21:53;100998.31;;;20.60;44.50
62544;BME280;48597;49.030;1.822;2023-01-10T11:26:51;100994.66;;;20.59;44.47
62544;BME280;48597;49.030;1.822;2023-01-10T11:31:45;100982.38;;;20.59;44.47
62544;BME280;48597;49.030;1.822;2023-01-10T11:34:32;100985.72;;;20.57;44.45
62544;BME280;48597;49.030;1.822;2023-01-10T11:37:42;100967.25;;;20.58;44.35
62544;BME280;48597;49.030;1.822;2023-01-10T11:40:12;100958.31;;;20.56;44.40
62544;BME280;48597;49.030;1.822;2023-01-10T11:42:38;100968.97;;;20.56;44.55
62544;BME280;48597;49.030;1.822;2023-01-10T11:45:21;100945.72;;;20.54;44.29
62544;BME280;48597;49.030;1.822;2023-01-10T11:47:54;100957.16;;;20.54;44.51
62544;BME280;48597;49.030;1.822;2023-01-10T11:50:26;100944.91;;;20.53;44.56
62544;BME280;48597;49.030;1.822;2023-01-10T11:52:53;100949.03;;;20.52;44.52
62544;BME280;48597;49.030;1.822;2023-01-10T11:55:30;100939.97;;;20.54;44.74
62544;BME280;48597;49.030;1.822;2023-01-10T11:58:08;100931.75;;;20.56;44.66
62544;BME280;48597;49.030;1.822;2023-01-10T12:00:39;100922.69;;;20.57;44.43
62544;BME280;48597;49.030;1.822;2023-01-10T12:03:30;100928.88;;;20.56;44.73
62544;BME280;48597;49.030;1.822;2023-01-10T12:06:05;100913.41;;;20.53;44.63
62544;BME280;48597;49.030;1.822;2023-01-10T12:08:34;100911.69;;;20.56;44.55
62544;BME280;48597;49.030;1.822;2023-01-10T12:11:02;100920.28;;;20.56;44.58
62544;BME280;48597;49.030;1.822;2023-01-10T12:13:29;100905.97;;;20.56;44.38
62544;BME280;48597;49.030;1.822;2023-01-10T12:16:19;100907.56;;;20.57;44.55
62544;BME280;48597;49.030;1.822;2023-01-10T12:18:47;100892.91;;;20.55;44.45
62544;BME280;48597;49.030;1.822;2023-01-10T12:21:14;100899.44;;;20.55;44.52
62544;BME280;48597;49.030;1.822;2023-01-10T12:23:42;100894.50;;;20.56;44.63
62544;BME280;48597;49.030;1.822;2023-01-10T12:26:10;100879.41;;;20.55;44.61
62544;BME280;48597;49.030;1.822;2023-01-10T12:28:40;100881.81;;;20.57;44.53
62544;BME280;48597;49.030;1.822;2023-01-10T12:31:12;100880.19;;;20.56;44.64
62544;BME280;48597;49.030;1.822;2023-01-10T12:33:43;100880.28;;;20.52;44.79
62544;BME280;48597;49.030;1.822;2023-01-10T12:36:22;100883.50;;;20.54;44.89
62544;BME280;48597;49.030;1.822;2023-01-10T12:39:02;100881.91;;;20.53;44.94
62544;BME280;48597;49.030;1.822;2023-01-10T12:44:38;100862.31;;;20.52;44.98
62544;BME280;48597;49.030;1.822;2023-01-10T12:52:41;100851.66;;;20.52;44.91
62544;BME280;48597;49.030;1.822;2023-01-10T12:55:17;100841.38;;;20.55;45.25
62544;BME280;48597;49.030;1.822;2023-01-10T12:57:46;100836.09;;;20.53;45.09
62544;BME280;48597;49.030;1.822;2023-01-10T13:00:30;100837.69;;;20.54;44.97
62544;BME280;48597;49.030;1.822;2023-01-10T13:02:59;100825.44;;;20.54;45.01
62544;BME280;48597;49.030;1.822;2023-01-10T13:05:27;100831.63;;;20.52;45.07
62544;BME280;48597;49.030;1.822;2023-01-10T13:07:57;100821.91;;;20.50;45.20
62544;BME280;48597;49.030;1.822;2023-01-10T13:10:23;100816.50;;;20.52;44.95
62544;BME280;48597;49.030;1.822;2023-01-10T13:13:00;100826.03;;;20.49;44.93
62544;BME280;48597;49.030;1.822;2023-01-10T13:15:35;100809.66;;;20.49;45.24
62544;BME280;48597;49.030;1.822;2023-01-10T13:18:17;100818.69;;;20.48;44.97
62544;BME280;48597;49.030;1.822;2023-01-10T13:20:43;100812.97;;;20.48;44.88
62544;BME280;48597;49.030;1.822;2023-01-10T13:23:19;100811.00;;;20.45;44.77
62544;BME280;48597;49.030;1.822;2023-01-10T13:25:55;100807.78;;;20.43;45.07
62544;BME280;48597;49.030;1.822;2023-01-10T13:28:28;100800.81;;;20.44;44.98
62544;BME280;48597;49.030;1.822;2023-01-10T13:30:57;100794.63;;;20.45;44.94
62544;BME280;48597;49.030;1.822;2023-01-10T13:36:29;100790.63;;;20.43;45.04
62544;BME280;48597;49.030;1.822;2023-01-10T13:39:00;100781.56;;;20.44;44.90
62544;BME280;48597;49.030;1.822;2023-01-10T13:58:37;100763.84;;;20.37;45.04
62544;BME280;48597;49.030;1.822;2023-01-10T14:01:27;100766.69;;;20.37;44.81
62544;BME280;48597;49.030;1.822;2023-01-10T14:04:25;100760.03;;;20.40;44.90
62544;BME280;48597;49.030;1.822;2023-01-10T14:06:54;100763.38;;;20.38;44.91
62544;BME280;48597;49.030;1.822;2023-01-10T14:11:52;100758.09;;;20.37;45.15
62544;BME280;48597;49.030;1.822;2023-01-10T14:14:27;100756.50;;;20.36;44.92
62544;BME280;48597;49.030;1.822;2023-01-10T14:16:56;100753.19;;;20.37;45.05
62544;BME280;48597;49.030;1.822;2023-01-10T14:19:26;100758.78;;;20.41;45.03
62544;BME280;48597;49.030;1.822;2023-01-10T14:21:54;100746.19;;;20.38;45.03
62544;BME280;48597;49.030;1.822;2023-01-10T14:24:37;100743.19;;;20.42;44.96
62544;BME280;48597;49.030;1.822;2023-01-10T14:27:05;100726.03;;;20.42;45.14
62544;BME280;48597;49.030;1.822;2023-01-10T14:29:32;100737.94;;;20.40;44.81
62544;BME280;48597;49.030;1.822;2023-01-10T14:31:59;100738.38;;;20.39;44.86
62544;BME280;48597;49.030;1.822;2023-01-10T14:37:01;100728.69;;;20.36;45.04
62544;BME280;48597;49.030;1.822;2023-01-10T14:39:30;100730.28;;;20.37;44.87
62544;BME280;48597;49.030;1.822;2023-01-10T14:42:01;100726.94;;;20.39;45.01